sensor_id;sensor_type;location;lat;lon;timestamp;pressure;altitude;pressure_sealevel;temperature;humidity
78845;BME280;68195;50.854;2.860;2023-07-20T00:00:09;101446.63;;;17.57;99.06
78845;BME280;68195;50.854;2.860;2023-07-20T00:02:35;101463.44;;;17.69;99.03
78845;BME280;68195;50.854;2.860;2023-07-20T00:05:00;101471.16;;;17.72;98.88
78845;BME280;68195;50.854;2.860;2023-07-20T00:07:25;101468.81;;;17.68;99.09
78845;BME280;68195;50.854;2.860;2023-07-20T00:09:51;101483.53;;;17.72;99.33
78845;BME280;68195;50.854;2.860;2023-07-20T00:12:16;101473.78;;;17.72;99.09
78845;BME280;68195;50.854;2.860;2023-07-20T00:14:44;101471.06;;;17.74;98.73
78845;BME280;68195;50.854;2.860;2023-07-20T00:17:10;101439.34;;;17.48;98.75
78845;BME280;68195;50.854;2.860;2023-07-20T00:19:35;101480.66;;;17.75;99.15
78845;BME280;68195;50.854;2.860;2023-07-20T00:22:01;101474.53;;;17.74;99.00
78845;BME280;68195;50.854;2.860;2023-07-20T00:24:29;101446.50;;;17.46;99.67
78845;BME280;68195;50.854;2.860;2023-07-20T00:26:55;101469.47;;;17.58;99.75
78845;BME280;68195;50.854;2.860;2023-07-20T00:29:21;101432.94;;;17.12;100.00
78845;BME280;68195;50.854;2.860;2023-07-20T00:31:48;101436.88;;;16.65;100.00
78845;BME280;68195;50.854;2.860;2023-07-20T00:34:16;101465.59;;;16.70;100.00
78845;BME280;68195;50.854;2.860;2023-07-20T00:36:44;101484.09;;;16.97;100.00
78845;BME280;68195;50.854;2.860;2023-07-20T00:39:14;101490.94;;;17.27;100.00
78845;BME280;68195;50.854;2.860;2023-07-20T00:41:40;101420.97;;;16.94;100.00
78845;BME280;68195;50.854;2.860;2023-07-20T00:44:07;101478.69;;;17.38;100.00
78845;BME280;68195;50.854;2.860;2023-07-20T00:46:37;101471.97;;;17.34;100.00
78845;BME280;68195;50.854;2.860;2023-07-20T00:49:06;101443.81;;;17.20;100.00
78845;BME280;68195;50.854;2.860;2023-07-20T00:51:34;101347.22;;;16.65;99.81
78845;BME280;68195;50.854;2.860;2023-07-20T00:54:02;101441.06;;;17.09;100.00
78845;BME280;68195;50.854;2.860;2023-07-20T00:56:32;101412.84;;;16.97;99.86
78845;BME280;68195;50.854;2.860;2023-07-20T00:58:58;101472.38;;;17.28;99.24
78845;BME280;68195;50.854;2.860;2023-07-20T01:01:28;101403.38;;;16.80;99.14
78845;BME280;68195;50.854;2.860;2023-07-20T01:03:55;101484.06;;;17.24;99.38
78845;BME280;68195;50.854;2.860;2023-07-20T01:06:45;101468.72;;;16.62;100.00
78845;BME280;68195;50.854;2.860;2023-07-20T01:09:26;101466.66;;;16.53;100.00
78845;BME280;68195;50.854;2.860;2023-07-20T01:14:25;101484.47;;;16.91;100.00
78845;BME280;68195;50.854;2.860;2023-07-20T01:16:51;101484.53;;;17.04;100.00
78845;BME280;68195;50.854;2.860;2023-07-20T01:19:17;101475.25;;;16.98;100.00
78845;BME280;68195;50.854;2.860;2023-07-20T01:32:30;101497.38;;;15.96;100.00
78845;BME280;68195;50.854;2.860;2023-07-20T01:35:01;101466.88;;;15.78;100.00
78845;BME280;68195;50.854;2.860;2023-07-20T01:37:30;101492.22;;;16.09;100.00
78845;BME280;68195;50.854;2.860;2023-07-20T01:39:59;101496.63;;;16.23;100.00
78845;BME280;68195;50.854;2.860;2023-07-20T01:42:28;101468.69;;;16.20;100.00
78845;BME280;68195;50.854;2.860;2023-07-20T01:44:53;101399.88;;;16.11;100.00
78845;BME280;68195;50.854;2.860;2023-07-20T01:47:21;101463.13;;;16.67;100.00
78845;BME280;68195;50.854;2.860;2023-07-20T01:49:48;101498.41;;;16.93;100.00
78845;BME280;68195;50.854;2.860;2023-07-20T01:52:13;101468.41;;;16.81;100.00
78845;BME280;68195;50.854;2.860;2023-07-20T01:54:43;101463.97;;;16.81;100.00
78845;BME280;68195;50.854;2.860;2023-07-20T01:57:11;101475.63;;;16.92;100.00
78845;BME280;68195;50.854;2.860;2023-07-20T01:59:39;101443.91;;;16.23;100.00
78845;BME280;68195;50.854;2.860;2023-07-20T02:02:04;101491.06;;;16.42;100.00
78845;BME280;68195;50.854;2.860;2023-07-20T02:04:30;101463.50;;;16.19;100.00
78845;BME280;68195;50.854;2.860;2023-07-20T02:06:55;101444.50;;;15.99;100.00
78845;BME280;68195;50.854;2.860;2023-07-20T02:09:21;101435.03;;;16.38;100.00
78845;BME280;68195;50.854;2.860;2023-07-20T02:11:48;101458.44;;;16.72;100.00
78845;BME280;68195;50.854;2.860;2023-07-20T02:14:15;101475.53;;;16.93;100.00
78845;BME280;68195;50.854;2.860;2023-07-20T02:16:40;101479.63;;;16.70;100.00
78845;BME280;68195;50.854;2.860;2023-07-20T02:19:06;101473.47;;;16.84;100.00
78845;BME280;68195;50.854;2.860;2023-07-20T02:21:34;101422.47;;;16.56;100.00
78845;BME280;68195;50.854;2.860;2023-07-20T02:24:02;101469.50;;;16.91;100.00
78845;BME280;68195;50.854;2.860;2023-07-20T02:26:30;101487.72;;;16.81;100.00
78845;BME280;68195;50.854;2.860;2023-07-20T02:28:55;101436.47;;;16.71;100.00
78845;BME280;68195;50.854;2.860;2023-07-20T02:31:20;101436.16;;;16.76;100.00
78845;BME280;68195;50.854;2.860;2023-07-20T02:33:48;101458.66;;;16.96;100.00
78845;BME280;68195;50.854;2.860;2023-07-20T02:36:14;101482.97;;;17.14;100.00
78845;BME280;68195;50.854;2.860;2023-07-20T02:38:42;101418.56;;;16.76;100.00
78845;BME280;68195;50.854;2.860;2023-07-20T02:41:10;101454.13;;;16.98;100.00
78845;BME280;68195;50.854;2.860;2023-07-20T02:43:38;101482.16;;;17.13;100.00
78845;BME280;68195;50.854;2.860;2023-07-20T02:46:03;101436.22;;;16.89;100.00
78845;BME280;68195;50.854;2.860;2023-07-20T02:48:28;101425.06;;;16.85;100.00
78845;BME280;68195;50.854;2.860;2023-07-20T02:50:54;101459.00;;;17.04;100.00
78845;BME280;68195;50.854;2.860;2023-07-20T02:53:22;101452.19;;;16.87;100.00
78845;BME280;68195;50.854;2.860;2023-07-20T02:55:48;101471.16;;;16.65;100.00
78845;BME280;68195;50.854;2.860;2023-07-20T02:58:15;101477.53;;;16.90;100.00
78845;BME280;68195;50.854;2.860;2023-07-20T03:00:45;101461.16;;;16.97;100.00
78845;BME280;68195;50.854;2.860;2023-07-20T03:03:10;101465.97;;;17.05;100.00
78845;BME280;68195;50.854;2.860;2023-07-20T03:05:36;101462.47;;;17.05;100.00
78845;BME280;68195;50.854;2.860;2023-07-20T03:08:05;101472.63;;;17.11;100.00
78845;BME280;68195;50.854;2.860;2023-07-20T03:10:31;101454.66;;;17.03;100.00
78845;BME280;68195;50.854;2.860;2023-07-20T03:13:01;101417.97;;;16.86;100.00
78845;BME280;68195;50.854;2.860;2023-07-20T03:15:29;101425.59;;;16.90;100.00
78845;BME280;68195;50.854;2.860;2023-07-20T03:17:57;101421.28;;;16.89;100.00
78845;BME280;68195;50.854;2.860;2023-07-20T03:20:26;101447.50;;;17.05;100.00
78845;BME280;68195;50.854;2.860;2023-07-20T03:22:53;101400.84;;;16.78;100.00
78845;BME280;68195;50.854;2.860;2023-07-20T03:25:21;101457.56;;;17.13;100.00
78845;BME280;68195;50.854;2.860;2023-07-20T03:27:51;101438.88;;;16.89;100.00
78845;BME280;68195;50.854;2.860;2023-07-20T03:30:16;101415.13;;;16.61;100.00
78845;BME280;68195;50.854;2.860;2023-07-20T03:32:44;101457.69;;;16.97;100.00
78845;BME280;68195;50.854;2.860;2023-07-20T03:35:09;101460.63;;;16.65;100.00
78845;BME280;68195;50.854;2.860;2023-07-20T03:37:38;101428.97;;;16.65;100.00
78845;BME280;68195;50.854;2.860;2023-07-20T03:40:03;101450.91;;;16.93;100.00
78845;BME280;68195;50.854;2.860;2023-07-20T03:42:32;101423.47;;;16.83;100.00
78845;BME280;68195;50.854;2.860;2023-07-20T03:45:00;101383.66;;;16.58;100.00
78845;BME280;68195;50.854;2.860;2023-07-20T03:47:26;101429.63;;;16.96;100.00
78845;BME280;68195;50.854;2.860;2023-07-20T03:49:56;101422.47;;;16.98;100.00
78845;BME280;68195;50.854;2.860;2023-07-20T03:52:24;101457.25;;;16.90;100.00
78845;BME280;68195;50.854;2.860;2023-07-20T03:54:52;101460.56;;;16.52;100.00
78845;BME280;68195;50.854;2.860;2023-07-20T03:57:17;101438.91;;;16.74;100.00
78845;BME280;68195;50.854;2.860;2023-07-20T03:59:47;101450.78;;;16.67;100.00
78845;BME280;68195;50.854;2.860;2023-07-20T04:02:13;101396.25;;;16.40;100.00
78845;BME280;68195;50.854;2.860;2023-07-20T04:04:38;101394.13;;;16.18;100.00
78845;BME280;68195;50.854;2.860;2023-07-20T04:07:04;101411.13;;;16.42;100.00
78845;BME280;68195;50.854;2.860;2023-07-20T04:09:31;101452.84;;;16.76;100.00
78845;BME280;68195;50.854;2.860;2023-07-20T04:11:57;101435.09;;;16.51;100.00
78845;BME280;68195;50.854;2.860;2023-07-20T04:14:25;101419.06;;;16.27;100.00
78845;BME280;68195;50.854;2.860;2023-07-20T04:16:50;101454.53;;;16.77;100.00
78845;BME280;68195;50.854;2.860;2023-07-20T04:19:16;101413.88;;;16.40;100.00
78845;BME280;68195;50.854;2.860;2023-07-20T04:21:45;101458.97;;;16.21;100.00
78845;BME280;68195;50.854;2.860;2023-07-20T04:24:10;101435.66;;;15.86;100.00
78845;BME280;68195;50.854;2.860;2023-07-20T04:26:39;101465.78;;;15.96;100.00
78845;BME280;68195;50.854;2.860;2023-07-20T04:29:04;101466.34;;;16.16;100.00
78845;BME280;68195;50.854;2.860;2023-07-20T04:31:30;101425.66;;;15.91;100.00
78845;BME280;68195;50.854;2.860;2023-07-20T04:33:58;101473.72;;;16.52;100.00
78845;BME280;68195;50.854;2.860;2023-07-20T04:36:26;101422.25;;;16.32;100.00
78845;BME280;68195;50.854;2.860;2023-07-20T04:38:51;101446.94;;;16.58;100.00
78845;BME280;68195;50.854;2.860;2023-07-20T04:41:19;101429.00;;;16.51;100.00
78845;BME280;68195;50.854;2.860;2023-07-20T04:43:47;101436.41;;;16.58;100.00
78845;BME280;68195;50.854;2.860;2023-07-20T04:46:13;101489.13;;;16.87;100.00
78845;BME280;68195;50.854;2.860;2023-07-20T04:48:38;101445.50;;;16.67;100.00
78845;BME280;68195;50.854;2.860;2023-07-20T04:51:05;101490.41;;;16.94;100.00
78845;BME280;68195;50.854;2.860;2023-07-20T04:53:33;101482.59;;;16.93;100.00
78845;BME280;68195;50.854;2.860;2023-07-20T04:55:58;101463.97;;;16.81;100.00
78845;BME280;68195;50.854;2.860;2023-07-20T04:58:27;101428.50;;;16.58;100.00
78845;BME280;68195;50.854;2.860;2023-07-20T05:00:55;101464.50;;;16.87;100.00
78845;BME280;68195;50.854;2.860;2023-07-20T05:03:23;101423.88;;;16.62;100.00
78845;BME280;68195;50.854;2.860;2023-07-20T05:05:51;101435.81;;;16.68;100.00
78845;BME280;68195;50.854;2.860;2023-07-20T05:08:20;101440.22;;;16.67;100.00
78845;BME280;68195;50.854;2.860;2023-07-20T05:10:47;101447.38;;;16.79;100.00
78845;BME280;68195;50.854;2.860;2023-07-20T05:13:15;101458.31;;;16.88;100.00
78845;BME280;68195;50.854;2.860;2023-07-20T05:15:43;101477.00;;;16.97;100.00
78845;BME280;68195;50.854;2.860;2023-07-20T05:18:08;101465.25;;;16.89;100.00
78845;BME280;68195;50.854;2.860;2023-07-20T05:20:34;101413.25;;;16.64;100.00
78845;BME280;68195;50.854;2.860;2023-07-20T05:23:02;101457.03;;;16.80;100.00
78845;BME280;68195;50.854;2.860;2023-07-20T05:25:28;101465.25;;;16.89;100.00
78845;BME280;68195;50.854;2.860;2023-07-20T05:27:58;101432.16;;;16.70;100.00
78845;BME280;68195;50.854;2.860;2023-07-20T05:30:23;101451.00;;;16.64;100.00
78845;BME280;68195;50.854;2.860;2023-07-20T05:32:51;101400.91;;;16.50;100.00
78845;BME280;68195;50.854;2.860;2023-07-20T05:35:22;101395.41;;;16.40;100.00
78845;BME280;68195;50.854;2.860;2023-07-20T05:37:50;101397.00;;;16.43;100.00
78845;BME280;68195;50.854;2.860;2023-07-20T05:40:18;101445.78;;;16.77;100.00
78845;BME280;68195;50.854;2.860;2023-07-20T05:42:48;101486.53;;;17.00;100.00
78845;BME280;68195;50.854;2.860;2023-07-20T05:45:16;101475.25;;;16.98;100.00
78845;BME280;68195;50.854;2.860;2023-07-20T05:47:46;101489.72;;;17.05;100.00
78845;BME280;68195;50.854;2.860;2023-07-20T05:50:16;101434.38;;;16.76;100.00
78845;BME280;68195;50.854;2.860;2023-07-20T05:52:41;101393.00;;;16.50;100.00
78845;BME280;68195;50.854;2.860;2023-07-20T05:55:09;101484.97;;;17.10;100.00
78845;BME280;68195;50.854;2.860;2023-07-20T05:57:37;101492.69;;;17.13;100.00
78845;BME280;68195;50.854;2.860;2023-07-20T06:00:11;101484.88;;;17.12;100.00
78845;BME280;68195;50.854;2.860;2023-07-20T06:02:38;101489.84;;;17.16;100.00
78845;BME280;68195;50.854;2.860;2023-07-20T06:05:05;101468.38;;;17.08;100.00
78845;BME280;68195;50.854;2.860;2023-07-20T06:07:30;101487.78;;;17.21;100.00
78845;BME280;68195;50.854;2.860;2023-07-20T06:09:58;101492.63;;;17.28;100.00
78845;BME280;68195;50.854;2.860;2023-07-20T06:12:24;101460.47;;;17.08;100.00
78845;BME280;68195;50.854;2.860;2023-07-20T06:14:49;101472.13;;;17.18;100.00
78845;BME280;68195;50.854;2.860;2023-07-20T06:17:15;101450.03;;;17.07;100.00
78845;BME280;68195;50.854;2.860;2023-07-20T06:19:40;101478.88;;;17.22;100.00
78845;BME280;68195;50.854;2.860;2023-07-20T06:22:06;101466.22;;;17.15;100.00
78845;BME280;68195;50.854;2.860;2023-07-20T06:24:31;101399.81;;;16.81;100.00
78845;BME280;68195;50.854;2.860;2023-07-20T06:27:01;101412.50;;;16.89;100.00
78845;BME280;68195;50.854;2.860;2023-07-20T06:29:33;101399.81;;;16.81;100.00
78845;BME280;68195;50.854;2.860;2023-07-20T06:31:58;101442.91;;;16.94;100.00
78845;BME280;68195;50.854;2.860;2023-07-20T06:34:23;101435.25;;;17.04;100.00
78845;BME280;68195;50.854;2.860;2023-07-20T06:36:49;101484.84;;;17.39;100.00
78845;BME280;68195;50.854;2.860;2023-07-20T06:39:17;101488.53;;;17.36;100.00
78845;BME280;68195;50.854;2.860;2023-07-20T06:41:42;101458.59;;;17.23;100.00
78845;BME280;68195;50.854;2.860;2023-07-20T06:44:10;101459.28;;;17.39;100.00
78845;BME280;68195;50.854;2.860;2023-07-20T06:46:36;101498.19;;;17.50;100.00
78845;BME280;68195;50.854;2.860;2023-07-20T06:49:02;101492.19;;;17.21;100.00
78845;BME280;68195;50.854;2.860;2023-07-20T06:51:27;101494.13;;;17.32;100.00
78845;BME280;68195;50.854;2.860;2023-07-20T06:53:52;101479.41;;;17.15;100.00
78845;BME280;68195;50.854;2.860;2023-07-20T06:56:18;101405.94;;;16.81;100.00
78845;BME280;68195;50.854;2.860;2023-07-20T06:58:43;101410.88;;;17.13;100.00
78845;BME280;68195;50.854;2.860;2023-07-20T07:01:16;101418.19;;;17.35;100.00
78845;BME280;68195;50.854;2.860;2023-07-20T07:03:46;101510.94;;;18.09;100.00
78845;BME280;68195;50.854;2.860;2023-07-20T07:06:11;101472.63;;;17.76;100.00
78845;BME280;68195;50.854;2.860;2023-07-20T07:08:39;101500.56;;;18.06;100.00
78845;BME280;68195;50.854;2.860;2023-07-20T07:11:05;101495.28;;;18.19;100.00
78845;BME280;68195;50.854;2.860;2023-07-20T07:13:30;101500.66;;;18.17;99.76
78845;BME280;68195;50.854;2.860;2023-07-20T07:15:56;101479.03;;;17.99;97.03
78845;BME280;68195;50.854;2.860;2023-07-20T07:18:21;101471.38;;;18.08;97.34
78845;BME280;68195;50.854;2.860;2023-07-20T07:20:53;101499.09;;;17.89;98.11
78845;BME280;68195;50.854;2.860;2023-07-20T07:23:19;101506.28;;;18.00;99.38
78845;BME280;68195;50.854;2.860;2023-07-20T07:25:45;101499.50;;;17.96;98.94
78845;BME280;68195;50.854;2.860;2023-07-20T07:28:10;101444.72;;;17.72;98.19
78845;BME280;68195;50.854;2.860;2023-07-20T07:30:35;101429.28;;;17.53;98.40
78845;BME280;68195;50.854;2.860;2023-07-20T07:33:01;101466.31;;;18.04;98.07
78845;BME280;68195;50.854;2.860;2023-07-20T07:35:26;101472.66;;;18.02;94.99
78845;BME280;68195;50.854;2.860;2023-07-20T07:37:52;101499.78;;;18.42;95.76
78845;BME280;68195;50.854;2.860;2023-07-20T07:40:19;101498.13;;;18.29;93.77
78845;BME280;68195;50.854;2.860;2023-07-20T07:42:48;101482.78;;;18.34;94.97
78845;BME280;68195;50.854;2.860;2023-07-20T07:45:13;101473.69;;;18.25;94.05
78845;BME280;68195;50.854;2.860;2023-07-20T07:47:42;101474.13;;;18.19;94.07
78845;BME280;68195;50.854;2.860;2023-07-20T07:50:12;101477.88;;;18.53;93.23
78845;BME280;68195;50.854;2.860;2023-07-20T07:52:38;101471.22;;;18.48;91.88
78845;BME280;68195;50.854;2.860;2023-07-20T07:55:03;101458.00;;;18.35;92.13
78845;BME280;68195;50.854;2.860;2023-07-20T07:57:31;101485.19;;;18.87;91.82
78845;BME280;68195;50.854;2.860;2023-07-20T08:00:04;101438.59;;;18.60;89.14
78845;BME280;68195;50.854;2.860;2023-07-20T08:02:32;101477.03;;;19.14;89.92
78845;BME280;68195;50.854;2.860;2023-07-20T08:05:00;101453.56;;;19.20;87.94
78845;BME280;68195;50.854;2.860;2023-07-20T08:07:28;101387.88;;;18.66;88.87
78845;BME280;68195;50.854;2.860;2023-07-20T08:09:53;101486.84;;;19.36;89.59
78845;BME280;68195;50.854;2.860;2023-07-20T08:12:24;101425.66;;;19.27;89.64
78845;BME280;68195;50.854;2.860;2023-07-20T08:14:54;101499.03;;;19.85;90.10
78845;BME280;68195;50.854;2.860;2023-07-20T08:17:25;101485.53;;;19.88;90.16
78845;BME280;68195;50.854;2.860;2023-07-20T08:19:50;101506.28;;;20.05;90.46
78845;BME280;68195;50.854;2.860;2023-07-20T08:22:15;101478.44;;;19.88;90.03
78845;BME280;68195;50.854;2.860;2023-07-20T08:24:44;101478.94;;;19.94;90.10
78845;BME280;68195;50.854;2.860;2023-07-20T08:27:14;101480.44;;;19.74;90.60
78845;BME280;68195;50.854;2.860;2023-07-20T08:29:39;101469.38;;;19.80;90.11
78845;BME280;68195;50.854;2.860;2023-07-20T08:32:06;101478.38;;;19.66;91.60
78845;BME280;68195;50.854;2.860;2023-07-20T08:34:33;101462.63;;;19.76;90.63
78845;BME280;68195;50.854;2.860;2023-07-20T08:37:01;101501.44;;;20.11;90.67
78845;BME280;68195;50.854;2.860;2023-07-20T08:39:27;101488.56;;;20.06;90.04
78845;BME280;68195;50.854;2.860;2023-07-20T08:41:55;101485.78;;;19.96;90.33
78845;BME280;68195;50.854;2.860;2023-07-20T08:44:21;101471.91;;;20.04;89.50
78845;BME280;68195;50.854;2.860;2023-07-20T08:46:50;101500.41;;;20.13;89.72
78845;BME280;68195;50.854;2.860;2023-07-20T08:49:18;101496.41;;;20.19;89.68
78845;BME280;68195;50.854;2.860;2023-07-20T08:51:45;101466.41;;;20.07;88.70
78845;BME280;68195;50.854;2.860;2023-07-20T08:54:14;101400.28;;;19.47;89.08
78845;BME280;68195;50.854;2.860;2023-07-20T08:56:45;101475.31;;;20.06;88.44
78845;BME280;68195;50.854;2.860;2023-07-20T08:59:15;101473.50;;;20.18;86.75
78845;BME280;68195;50.854;2.860;2023-07-20T09:01:43;101455.03;;;19.82;87.64
78845;BME280;68195;50.854;2.860;2023-07-20T09:04:09;101490.13;;;20.08;88.16
78845;BME280;68195;50.854;2.860;2023-07-20T09:06:37;101500.28;;;20.26;86.93
78845;BME280;68195;50.854;2.860;2023-07-20T09:09:05;101496.66;;;20.27;87.50
78845;BME280;68195;50.854;2.860;2023-07-20T09:11:35;101495.94;;;20.02;88.01
78845;BME280;68195;50.854;2.860;2023-07-20T09:14:08;101499.66;;;20.56;85.76
78845;BME280;68195;50.854;2.860;2023-07-20T09:17:03;101490.75;;;20.35;82.70
78845;BME280;68195;50.854;2.860;2023-07-20T09:19:31;101465.78;;;20.03;85.94
78845;BME280;68195;50.854;2.860;2023-07-20T09:21:59;101468.78;;;20.21;84.64
78845;BME280;68195;50.854;2.860;2023-07-20T09:24:24;101448.91;;;20.27;82.71
78845;BME280;68195;50.854;2.860;2023-07-20T09:26:53;101452.00;;;20.32;81.11
78845;BME280;68195;50.854;2.860;2023-07-20T09:29:20;101492.50;;;19.78;82.69
78845;BME280;68195;50.854;2.860;2023-07-20T09:32:03;101456.00;;;19.70;84.63
78845;BME280;68195;50.854;2.860;2023-07-20T09:34:30;101498.69;;;19.54;86.86
78845;BME280;68195;50.854;2.860;2023-07-20T09:37:01;101479.75;;;19.83;86.51
78845;BME280;68195;50.854;2.860;2023-07-20T09:39:28;101496.28;;;20.09;87.85
78845;BME280;68195;50.854;2.860;2023-07-20T09:41:54;101472.75;;;19.93;86.36
78845;BME280;68195;50.854;2.860;2023-07-20T09:44:27;101438.31;;;19.82;85.68
78845;BME280;68195;50.854;2.860;2023-07-20T09:46:53;101475.31;;;20.17;85.74
78845;BME280;68195;50.854;2.860;2023-07-20T09:49:21;101483.00;;;20.43;83.44
78845;BME280;68195;50.854;2.860;2023-07-20T09:51:49;101469.53;;;20.35;82.40
78845;BME280;68195;50.854;2.860;2023-07-20T09:54:16;101455.66;;;20.31;82.10
78845;BME280;68195;50.854;2.860;2023-07-20T09:56:43;101343.94;;;19.68;82.29
78845;BME280;68195;50.854;2.860;2023-07-20T09:59:16;101478.69;;;19.85;82.61
78845;BME280;68195;50.854;2.860;2023-07-20T10:01:46;101480.22;;;19.41;82.65
78845;BME280;68195;50.854;2.860;2023-07-20T10:04:15;101472.72;;;19.24;83.50
78845;BME280;68195;50.854;2.860;2023-07-20T10:06:42;101481.28;;;19.27;85.27
78845;BME280;68195;50.854;2.860;2023-07-20T10:09:14;101458.59;;;19.12;84.62
78845;BME280;68195;50.854;2.860;2023-07-20T10:11:45;101472.59;;;19.25;83.20
78845;BME280;68195;50.854;2.860;2023-07-20T10:14:12;101440.28;;;18.85;83.04
78845;BME280;68195;50.854;2.860;2023-07-20T10:16:49;101444.75;;;18.84;83.20
78845;BME280;68195;50.854;2.860;2023-07-20T10:19:27;101475.16;;;19.03;82.78
78845;BME280;68195;50.854;2.860;2023-07-20T10:22:09;101458.13;;;19.18;84.12
78845;BME280;68195;50.854;2.860;2023-07-20T10:24:39;101461.63;;;19.65;82.78
78845;BME280;68195;50.854;2.860;2023-07-20T10:27:07;101437.28;;;19.60;84.17
78845;BME280;68195;50.854;2.860;2023-07-20T10:29:35;101456.28;;;20.01;83.19
78845;BME280;68195;50.854;2.860;2023-07-20T10:32:02;101440.97;;;20.04;82.26
78845;BME280;68195;50.854;2.860;2023-07-20T10:34:30;101460.47;;;20.03;83.22
78845;BME280;68195;50.854;2.860;2023-07-20T10:36:56;101430.38;;;20.04;82.41
78845;BME280;68195;50.854;2.860;2023-07-20T10:39:25;101461.53;;;20.57;81.30
78845;BME280;68195;50.854;2.860;2023-07-20T10:42:00;101409.13;;;20.27;77.37
78845;BME280;68195;50.854;2.860;2023-07-20T10:44:26;101405.44;;;20.62;77.74
78845;BME280;68195;50.854;2.860;2023-07-20T10:47:08;101410.69;;;20.84;73.68
78845;BME280;68195;50.854;2.860;2023-07-20T10:49:57;101415.94;;;20.96;74.11
78845;BME280;68195;50.854;2.860;2023-07-20T10:52:23;101389.69;;;21.02;72.73
78845;BME280;68195;50.854;2.860;2023-07-20T10:54:48;101411.53;;;21.06;69.40
78845;BME280;68195;50.854;2.860;2023-07-20T10:57:32;101413.56;;;21.35;73.07
78845;BME280;68195;50.854;2.860;2023-07-20T11:00:14;101403.88;;;21.34;71.08
78845;BME280;68195;50.854;2.860;2023-07-20T11:02:47;101406.69;;;21.53;72.63
78845;BME280;68195;50.854;2.860;2023-07-20T11:08:02;101412.53;;;22.08;72.32
78845;BME280;68195;50.854;2.860;2023-07-20T11:10:28;101394.03;;;22.07;70.73
78845;BME280;68195;50.854;2.860;2023-07-20T11:13:19;101405.50;;;22.38;70.47
78845;BME280;68195;50.854;2.860;2023-07-20T11:15:46;101389.94;;;22.43;69.55
78845;BME280;68195;50.854;2.860;2023-07-20T11:18:13;101399.34;;;22.38;69.17
78845;BME280;68195;50.854;2.860;2023-07-20T11:20:39;101385.22;;;22.06;67.18
78845;BME280;68195;50.854;2.860;2023-07-20T11:23:05;101375.50;;;22.36;69.55
78845;BME280;68195;50.854;2.860;2023-07-20T11:25:40;101373.88;;;22.04;67.08
78845;BME280;68195;50.854;2.860;2023-07-20T11:28:11;101392.06;;;22.40;69.45
78845;BME280;68195;50.854;2.860;2023-07-20T11:30:38;101380.44;;;22.50;69.03
78845;BME280;68195;50.854;2.860;2023-07-20T11:33:08;101350.69;;;22.26;65.00
78845;BME280;68195;50.854;2.860;2023-07-20T11:35:48;101375.94;;;22.80;68.20
78845;BME280;68195;50.854;2.860;2023-07-20T11:38:16;101348.75;;;22.86;66.25
78845;BME280;68195;50.854;2.860;2023-07-20T11:40:45;101367.69;;;23.03;65.16
78845;BME280;68195;50.854;2.860;2023-07-20T11:43:12;101323.38;;;23.02;66.05
78845;BME280;68195;50.854;2.860;2023-07-20T11:45:40;101358.97;;;23.20;65.46
78845;BME280;68195;50.854;2.860;2023-07-20T11:48:06;101362.47;;;23.21;65.99
78845;BME280;68195;50.854;2.860;2023-07-20T11:50:38;101358.97;;;23.10;67.23
78845;BME280;68195;50.854;2.860;2023-07-20T11:53:07;101341.63;;;22.77;65.09
78845;BME280;68195;50.854;2.860;2023-07-20T11:55:36;101360.53;;;22.55;65.25
78845;BME280;68195;50.854;2.860;2023-07-20T11:58:03;101342.53;;;21.16;71.45
78845;BME280;68195;50.854;2.860;2023-07-20T12:00:31;101361.25;;;20.28;77.02
78845;BME280;68195;50.854;2.860;2023-07-20T12:02:56;101372.25;;;20.01;79.26
78845;BME280;68195;50.854;2.860;2023-07-20T12:05:22;101370.06;;;19.50;79.52
78845;BME280;68195;50.854;2.860;2023-07-20T12:07:50;101375.81;;;19.33;81.15
78845;BME280;68195;50.854;2.860;2023-07-20T12:10:28;101391.75;;;19.44;81.53
78845;BME280;68195;50.854;2.860;2023-07-20T12:13:01;101386.91;;;19.26;83.55
78845;BME280;68195;50.854;2.860;2023-07-20T12:15:28;101387.94;;;19.13;86.00
78845;BME280;68195;50.854;2.860;2023-07-20T12:17:59;101327.53;;;18.47;88.62
78845;BME280;68195;50.854;2.860;2023-07-20T12:25:37;101345.44;;;17.44;99.96
78845;BME280;68195;50.854;2.860;2023-07-20T12:28:21;101385.38;;;17.52;100.00
78845;BME280;68195;50.854;2.860;2023-07-20T12:30:47;101411.88;;;17.51;100.00
78845;BME280;68195;50.854;2.860;2023-07-20T12:33:21;101415.97;;;17.42;100.00
78845;BME280;68195;50.854;2.860;2023-07-20T12:35:52;101393.69;;;17.20;100.00
78845;BME280;68195;50.854;2.860;2023-07-20T12:38:21;101406.97;;;17.19;100.00
78845;BME280;68195;50.854;2.860;2023-07-20T12:40:52;101371.97;;;16.90;100.00
78845;BME280;68195;50.854;2.860;2023-07-20T12:43:17;101404.56;;;16.89;100.00
78845;BME280;68195;50.854;2.860;2023-07-20T12:45:45;101433.03;;;16.98;100.00
78845;BME280;68195;50.854;2.860;2023-07-20T12:48:15;101357.81;;;16.51;100.00
78845;BME280;68195;50.854;2.860;2023-07-20T12:50:40;101424.34;;;16.96;100.00
78845;BME280;68195;50.854;2.860;2023-07-20T12:53:08;101431.91;;;16.88;100.00
78845;BME280;68195;50.854;2.860;2023-07-20T12:55:34;101430.78;;;16.92;100.00
78845;BME280;68195;50.854;2.860;2023-07-20T12:58:02;101347.41;;;16.35;100.00
78845;BME280;68195;50.854;2.860;2023-07-20T13:00:28;101375.69;;;16.46;100.00
78845;BME280;68195;50.854;2.860;2023-07-20T13:02:55;101457.50;;;17.00;100.00
78845;BME280;68195;50.854;2.860;2023-07-20T13:05:22;101457.91;;;16.94;100.00
78845;BME280;68195;50.854;2.860;2023-07-20T13:07:50;101446.22;;;16.98;100.00
78845;BME280;68195;50.854;2.860;2023-07-20T13:10:16;101456.50;;;17.15;100.00